createdAt,value
2023-02-24T00:01:25.250Z,34.65
2023-02-24T00:03:57.057Z,37.65
2023-02-24T00:06:36.126Z,37.42
2023-02-24T00:09:16.141Z,36.03
2023-02-24T00:11:53.845Z,33.40
2023-02-24T00:14:20.317Z,29.95
2023-02-24T00:16:47.213Z,16.33
2023-02-24T00:19:16.074Z,12.38
2023-02-24T00:21:43.085Z,14.38
2023-02-24T00:24:09.598Z,15.45
2023-02-24T00:26:35.962Z,13.82
2023-02-24T00:29:05.103Z,12.75
2023-02-24T00:31:31.112Z,12.05
2023-02-24T00:34:01.492Z,9.82
2023-02-24T00:36:29.841Z,10.70
2023-02-24T00:39:10.410Z,9.25
2023-02-24T00:41:41.860Z,10.45
2023-02-24T00:44:10.659Z,9.88
2023-02-24T00:46:39.698Z,9.27
2023-02-24T00:49:10.513Z,10.18
2023-02-24T00:51:41.490Z,8.90
2023-02-24T00:54:09.493Z,9.25
2023-02-24T00:56:35.496Z,10.05
2023-02-24T00:59:02.193Z,10.35
2023-02-24T01:01:31.443Z,11.52
2023-02-24T01:03:59.397Z,11.15
2023-02-24T01:06:28.585Z,12.38
2023-02-24T01:08:56.537Z,11.35
2023-02-24T01:11:45.611Z,10.73
2023-02-24T01:14:15.071Z,11.15
2023-02-24T01:16:44.006Z,12.55
2023-02-24T01:19:11.020Z,12.27
2023-02-24T01:21:36.870Z,13.18
2023-02-24T01:24:03.022Z,15.98
2023-02-24T01:26:33.099Z,17.27
2023-02-24T01:28:59.069Z,19.58
2023-02-24T01:31:25.655Z,18.73
2023-02-24T01:33:51.860Z,21.85
2023-02-24T01:36:24.726Z,19.42
2023-02-24T01:38:52.124Z,17.92
2023-02-24T01:41:22.598Z,19.65
2023-02-24T01:43:57.990Z,18.25
2023-02-24T01:46:38.133Z,18.95
2023-02-24T01:49:13.073Z,16.48
2023-02-24T01:51:43.888Z,18.58
2023-02-24T01:54:13.787Z,18.42
2023-02-24T01:56:40.734Z,17.10
2023-02-24T01:59:08.804Z,17.23
2023-02-24T02:01:40.346Z,17.85
2023-02-24T02:04:17.143Z,17.50
2023-02-24T02:06:44.822Z,18.33
2023-02-24T02:09:11.605Z,17.83
2023-02-24T02:11:37.530Z,17.60
2023-02-24T02:14:03.437Z,16.50
2023-02-24T02:16:45.254Z,17.85
2023-02-24T02:19:28.109Z,16.88
2023-02-24T02:22:18.405Z,16.50
2023-02-24T02:24:51.574Z,19.13
2023-02-24T02:27:39.172Z,17.40
2023-02-24T02:30:22.744Z,18.35
2023-02-24T02:32:52.580Z,18.45
2023-02-24T02:35:25.768Z,16.63
2023-02-24T02:38:14.664Z,15.75
2023-02-24T02:40:51.719Z,13.48
2023-02-24T02:43:26.029Z,11.93
2023-02-24T02:45:57.229Z,12.50
2023-02-24T02:48:48.507Z,12.55
2023-02-24T02:51:29.357Z,13.43
2023-02-24T02:54:10.633Z,11.27
2023-02-24T02:56:41.819Z,10.75
2023-02-24T02:59:11.959Z,10.60
2023-02-24T03:01:42.987Z,11.57
2023-02-24T03:04:16.162Z,11.43
2023-02-24T03:06:47.070Z,11.32
2023-02-24T03:09:23.124Z,11.20
2023-02-24T03:11:59.069Z,12.35
2023-02-24T03:14:32.574Z,12.68
2023-02-24T03:16:58.874Z,11.57
2023-02-24T03:19:36.797Z,12.48
2023-02-24T03:22:13.067Z,12.82
2023-02-24T03:24:40.530Z,12.73
2023-02-24T03:27:12.699Z,11.18
2023-02-24T03:29:52.203Z,11.73
2023-02-24T03:32:22.301Z,10.88
2023-02-24T03:35:04.381Z,11.55
2023-02-24T03:37:32.827Z,12.63
2023-02-24T03:40:13.906Z,12.25
2023-02-24T03:42:44.542Z,13.40
2023-02-24T03:45:11.188Z,12.80
2023-02-24T03:47:41.562Z,13.70
2023-02-24T03:50:14.088Z,14.63
2023-02-24T03:53:19.993Z,13.40
2023-02-24T03:55:48.807Z,15.37
2023-02-24T03:58:28.035Z,14.20
2023-02-24T04:00:57.157Z,14.77
2023-02-24T04:03:57.718Z,13.80
2023-02-24T04:06:57.914Z,16.65
2023-02-24T04:09:42.218Z,16.27
2023-02-24T04:12:23.264Z,17.08
2023-02-24T04:15:03.889Z,14.95
2023-02-24T04:17:39.844Z,14.80
2023-02-24T04:20:28.741Z,15.65
2023-02-24T04:23:01.384Z,15.07
2023-02-24T04:25:30.421Z,16.38
2023-02-24T04:27:58.552Z,16.58
2023-02-24T04:30:29.046Z,17.40
2023-02-24T04:32:56.112Z,16.20
2023-02-24T04:35:22.336Z,15.23
2023-02-24T04:37:49.776Z,16.48
2023-02-24T04:40:18.045Z,15.57
2023-02-24T04:42:48.205Z,15.07
2023-02-24T04:45:21.552Z,15.75
2023-02-24T04:47:52.616Z,14.85
2023-02-24T04:50:23.488Z,14.07
2023-02-24T04:52:50.227Z,14.77
2023-02-24T04:55:17.798Z,15.75
2023-02-24T04:57:45.358Z,16.25
2023-02-24T05:00:20.070Z,16.90
2023-02-24T05:02:50.018Z,14.10
2023-02-24T05:05:17.908Z,14.52
2023-02-24T05:07:47.001Z,12.65
2023-02-24T05:10:14.811Z,11.45
2023-02-24T05:12:41.819Z,12.65
2023-02-24T05:15:08.387Z,12.65
2023-02-24T05:17:34.632Z,12.55
2023-02-24T05:20:19.230Z,12.45
2023-02-24T05:22:51.032Z,11.93
2023-02-24T05:25:19.406Z,11.93
2023-02-24T05:27:46.670Z,10.30
2023-02-24T05:30:13.864Z,11.35
2023-02-24T05:32:41.400Z,11.85
2023-02-24T05:35:08.022Z,8.85
2023-02-24T05:37:41.322Z,8.43
2023-02-24T05:40:12.778Z,7.88
2023-02-24T05:42:40.688Z,7.32
2023-02-24T05:45:08.698Z,8.05
2023-02-24T05:47:36.044Z,8.07
2023-02-24T05:50:02.647Z,6.35
2023-02-24T05:52:28.539Z,6.47
2023-02-24T05:54:54.457Z,8.02
2023-02-24T05:57:23.883Z,6.75
2023-02-24T05:59:50.621Z,6.97
2023-02-24T06:02:26.489Z,6.28
2023-02-24T06:04:53.520Z,6.50
2023-02-24T06:07:25.613Z,7.13
2023-02-24T06:09:56.618Z,5.82
2023-02-24T06:12:28.687Z,4.95
2023-02-24T06:14:55.253Z,5.82
2023-02-24T06:17:22.202Z,6.00
2023-02-24T06:19:51.330Z,6.80
2023-02-24T06:22:20.137Z,6.70
2023-02-24T06:24:48.579Z,7.35
2023-02-24T06:27:18.116Z,7.93
2023-02-24T06:29:46.972Z,7.18
2023-02-24T06:32:12.951Z,7.40
2023-02-24T06:34:39.475Z,7.72
2023-02-24T06:37:07.584Z,8.02
2023-02-24T06:39:36.494Z,9.45
2023-02-24T06:42:04.373Z,9.18
2023-02-24T06:44:30.935Z,7.63
2023-02-24T06:46:57.369Z,7.75
2023-02-24T06:49:24.656Z,7.55
2023-02-24T06:51:51.580Z,7.22
2023-02-24T06:54:18.423Z,7.00
2023-02-24T06:56:44.583Z,7.55
2023-02-24T06:59:12.237Z,7.53
2023-02-24T07:01:44.728Z,9.18
2023-02-24T07:04:11.701Z,7.70
2023-02-24T07:06:42.676Z,8.10
2023-02-24T07:09:10.764Z,7.30
2023-02-24T07:11:40.817Z,6.97
2023-02-24T07:14:08.254Z,6.38
2023-02-24T07:16:35.188Z,6.70
2023-02-24T07:19:10.493Z,5.95
2023-02-24T07:21:42.684Z,6.72
2023-02-24T07:24:15.803Z,5.88
2023-02-24T07:26:43.090Z,6.28
2023-02-24T07:29:11.029Z,5.53
2023-02-24T07:31:38.893Z,5.57
2023-02-24T07:34:05.714Z,6.25
2023-02-24T07:36:38.077Z,5.45
2023-02-24T07:39:07.320Z,5.95
2023-02-24T07:41:33.872Z,6.13
2023-02-24T07:44:02.557Z,5.72
2023-02-24T07:46:29.405Z,5.72
2023-02-24T07:48:58.468Z,5.88
2023-02-24T07:51:27.048Z,4.93
2023-02-24T07:53:56.378Z,5.57
2023-02-24T07:56:30.274Z,7.20
2023-02-24T07:59:02.878Z,5.82
2023-02-24T08:01:38.051Z,5.65
2023-02-24T08:04:07.408Z,6.68
2023-02-24T08:06:39.214Z,6.05
2023-02-24T08:09:17.822Z,6.32
2023-02-24T08:11:54.088Z,6.57
2023-02-24T08:14:25.906Z,6.25
2023-02-24T08:16:58.760Z,6.25
2023-02-24T08:19:38.742Z,6.53
2023-02-24T08:22:18.699Z,6.25
2023-02-24T08:25:06.402Z,6.72
2023-02-24T08:27:44.371Z,6.35
2023-02-24T08:30:22.618Z,6.03
2023-02-24T08:32:56.082Z,6.68
2023-02-24T08:35:31.448Z,6.70
2023-02-24T08:38:07.177Z,5.85
2023-02-24T08:40:36.977Z,6.53
2023-02-24T08:43:19.008Z,6.15
2023-02-24T08:46:12.645Z,5.97
2023-02-24T08:48:41.569Z,6.10
2023-02-24T08:51:21.784Z,5.65
2023-02-24T08:53:53.349Z,5.85
2023-02-24T08:56:25.829Z,6.05
2023-02-24T08:59:04.562Z,6.70
2023-02-24T09:01:36.508Z,7.38
2023-02-24T09:04:08.896Z,6.72
2023-02-24T09:06:44.820Z,7.13
2023-02-24T09:09:16.824Z,8.18
2023-02-24T09:11:48.862Z,7.70
2023-02-24T09:14:26.572Z,9.52
2023-02-24T09:17:05.326Z,8.23
2023-02-24T09:19:50.183Z,8.70
2023-02-24T09:22:30.681Z,8.60
2023-02-24T09:25:26.011Z,8.43
2023-02-24T09:28:08.524Z,9.20
2023-02-24T09:30:50.296Z,8.30
2023-02-24T09:33:40.929Z,9.18
2023-02-24T09:36:13.278Z,8.68
2023-02-24T09:39:06.221Z,8.25
2023-02-24T09:41:54.174Z,8.73
2023-02-24T09:44:24.539Z,8.40
2023-02-24T09:46:59.856Z,9.63
2023-02-24T09:49:45.679Z,7.47
2023-02-24T09:52:16.752Z,6.88
2023-02-24T09:55:08.052Z,7.45
2023-02-24T09:58:10.209Z,7.45
2023-02-24T10:00:43.373Z,7.18
2023-02-24T10:03:29.317Z,7.20
2023-02-24T10:08:37.489Z,7.32
2023-02-24T10:11:07.117Z,7.07
2023-02-24T10:13:37.494Z,6.97
2023-02-24T10:16:09.597Z,7.20
2023-02-24T10:19:00.366Z,7.72
2023-02-24T10:21:48.965Z,7.22
2023-02-24T10:24:47.937Z,7.57
2023-02-24T10:27:24.397Z,7.85
2023-02-24T10:30:18.872Z,7.80
2023-02-24T10:32:51.381Z,7.60
2023-02-24T10:35:21.358Z,8.52
2023-02-24T10:37:48.483Z,8.43
2023-02-24T10:40:25.635Z,8.27
2023-02-24T10:43:03.696Z,9.23
2023-02-24T10:45:34.690Z,8.80
2023-02-24T10:48:06.661Z,9.90
2023-02-24T10:50:55.028Z,8.88
2023-02-24T10:53:28.951Z,9.50
2023-02-24T10:56:17.048Z,9.52
2023-02-24T10:58:52.574Z,9.07
2023-02-24T11:04:27.351Z,6.90
2023-02-24T11:07:11.780Z,7.15
2023-02-24T11:09:44.921Z,7.53
2023-02-24T11:12:39.212Z,7.95
2023-02-24T11:15:35.272Z,7.32
2023-02-24T11:18:01.956Z,7.40
2023-02-24T11:20:49.011Z,8.15
2023-02-24T11:23:38.721Z,7.85
2023-02-24T11:26:10.807Z,7.18
2023-02-24T11:28:56.642Z,6.13
2023-02-24T11:31:28.340Z,5.68
2023-02-24T11:34:09.329Z,6.05
2023-02-24T11:36:36.465Z,6.15
2023-02-24T11:39:31.274Z,5.75
2023-02-24T11:42:01.474Z,5.93
2023-02-24T11:44:46.252Z,6.78
2023-02-24T11:47:21.800Z,6.10
2023-02-24T11:52:29.589Z,6.65
2023-02-24T11:54:57.890Z,7.38
2023-02-24T11:57:36.936Z,7.43
2023-02-24T12:00:22.751Z,7.38
2023-02-24T12:03:02.912Z,7.25
2023-02-24T12:05:38.903Z,8.10
2023-02-24T12:08:29.264Z,8.57
2023-02-24T12:11:10.811Z,9.18
2023-02-24T12:13:53.931Z,8.80
2023-02-24T12:16:28.376Z,9.68
2023-02-24T12:19:03.695Z,8.82
2023-02-24T12:21:38.621Z,10.32
2023-02-24T12:24:08.942Z,9.30
2023-02-24T12:27:13.457Z,9.48
2023-02-24T12:29:49.355Z,10.40
2023-02-24T12:32:42.163Z,9.85
2023-02-24T12:35:21.815Z,11.25
2023-02-24T12:37:58.165Z,10.55
2023-02-24T12:40:47.279Z,11.88
2023-02-24T12:43:35.371Z,10.75
2023-02-24T12:46:16.498Z,11.70
2023-02-24T12:49:08.682Z,11.63
2023-02-24T12:51:54.737Z,12.15
2023-02-24T12:54:29.173Z,12.35
2023-02-24T12:57:29.554Z,12.40
2023-02-24T12:59:58.223Z,13.10
2023-02-24T13:02:41.445Z,12.23
2023-02-24T13:05:21.406Z,12.77
2023-02-24T13:08:06.928Z,12.63
2023-02-24T13:10:45.095Z,13.13
2023-02-24T13:13:27.424Z,14.10
2023-02-24T13:15:55.966Z,13.50
2023-02-24T13:18:34.715Z,13.15
2023-02-24T13:21:02.306Z,12.75
2023-02-24T13:23:28.352Z,13.68
2023-02-24T13:25:55.392Z,12.63
2023-02-24T13:28:24.949Z,13.00
2023-02-24T13:31:01.566Z,12.90
2023-02-24T13:33:34.252Z,11.90
2023-02-24T13:36:11.591Z,11.43
2023-02-24T13:38:41.116Z,11.10
2023-02-24T13:41:09.363Z,10.80
2023-02-24T13:43:35.688Z,10.55
2023-02-24T13:46:15.359Z,9.82
2023-02-24T13:48:44.075Z,9.00
2023-02-24T13:51:47.488Z,9.95
2023-02-24T13:54:32.999Z,9.63
2023-02-24T13:57:32.223Z,9.45
2023-02-24T14:00:14.016Z,8.85
2023-02-24T14:02:43.330Z,8.90
2023-02-24T14:05:19.421Z,9.10
2023-02-24T14:07:49.512Z,8.18
2023-02-24T14:10:19.698Z,8.45
2023-02-24T14:12:47.736Z,8.32
2023-02-24T14:15:21.306Z,7.88
2023-02-24T14:18:02.543Z,7.88
2023-02-24T14:20:34.219Z,7.90
2023-02-24T14:23:01.010Z,7.20
2023-02-24T14:25:33.300Z,7.18
2023-02-24T14:27:59.791Z,7.22
2023-02-24T14:30:32.199Z,7.32
2023-02-24T14:32:58.752Z,6.45
2023-02-24T14:35:41.015Z,6.35
2023-02-24T14:38:27.711Z,7.50
2023-02-24T14:40:53.510Z,7.40
2023-02-24T14:43:19.744Z,7.75
2023-02-24T14:45:50.332Z,6.22
2023-02-24T14:48:27.888Z,6.30
2023-02-24T14:51:04.704Z,5.80
2023-02-24T14:53:34.893Z,6.40
2023-02-24T14:56:06.062Z,5.85
2023-02-24T14:58:44.167Z,5.72
2023-02-24T15:01:23.292Z,5.47
2023-02-24T15:03:54.076Z,5.75
2023-02-24T15:06:32.789Z,5.93
2023-02-24T15:09:12.360Z,5.80
2023-02-24T15:11:38.395Z,7.10
2023-02-24T15:14:14.679Z,6.20
2023-02-24T15:16:46.504Z,5.78
2023-02-24T15:19:26.979Z,5.57
2023-02-24T15:21:53.642Z,6.03
2023-02-24T15:24:24.413Z,4.97
2023-02-24T15:26:55.915Z,5.38
2023-02-24T15:29:28.053Z,10.40
2023-02-24T15:31:56.137Z,7.47
2023-02-24T15:34:26.466Z,8.45
2023-02-24T15:36:57.498Z,6.20
2023-02-24T15:39:26.917Z,6.18
2023-02-24T15:42:06.293Z,6.57
2023-02-24T15:44:33.992Z,6.82
2023-02-24T15:47:18.241Z,6.50
2023-02-24T15:49:44.091Z,8.07
2023-02-24T15:52:10.304Z,6.85
2023-02-24T15:54:38.435Z,7.55
2023-02-24T15:57:04.795Z,8.00
2023-02-24T15:59:30.782Z,10.43
2023-02-24T16:01:56.904Z,10.73
2023-02-24T16:04:23.781Z,9.20
2023-02-24T16:06:53.879Z,13.02
2023-02-24T16:09:31.730Z,12.43
2023-02-24T16:11:59.366Z,10.90
2023-02-24T16:14:25.675Z,13.02
2023-02-24T16:16:51.954Z,14.40
2023-02-24T16:19:17.993Z,12.25
2023-02-24T16:21:43.802Z,13.13
2023-02-24T16:24:09.802Z,17.42
2023-02-24T16:26:38.297Z,15.13
2023-02-24T16:29:10.864Z,14.65
2023-02-24T16:31:38.415Z,15.20
2023-02-24T16:34:05.569Z,14.98
2023-02-24T16:36:32.340Z,15.82
2023-02-24T16:38:58.593Z,16.52
2023-02-24T16:41:24.392Z,15.73
2023-02-24T16:43:50.657Z,16.75
2023-02-24T16:46:19.739Z,14.77
2023-02-24T16:48:48.578Z,16.20
2023-02-24T16:51:17.137Z,15.98
2023-02-24T16:53:43.182Z,14.82
2023-02-24T16:56:09.478Z,15.52
2023-02-24T16:58:35.431Z,14.45
2023-02-24T17:01:03.635Z,14.50
2023-02-24T17:03:44.234Z,14.63
2023-02-24T17:06:10.253Z,14.90
2023-02-24T17:08:36.383Z,15.95
2023-02-24T17:11:02.746Z,16.63
2023-02-24T17:13:28.680Z,18.10
2023-02-24T17:15:56.566Z,18.77
2023-02-24T17:18:26.204Z,17.02
2023-02-24T17:20:52.846Z,15.10
2023-02-24T17:23:19.062Z,14.75
2023-02-24T17:25:49.480Z,15.20
2023-02-24T17:28:15.408Z,14.18
2023-02-24T17:30:42.300Z,15.10
2023-02-24T17:33:08.231Z,14.32
2023-02-24T17:35:34.521Z,14.68
2023-02-24T17:38:00.669Z,14.77
2023-02-24T17:40:26.838Z,16.45
2023-02-24T17:42:52.730Z,16.08
2023-02-24T17:45:19.377Z,15.57
2023-02-24T17:47:45.287Z,18.98
2023-02-24T17:50:12.428Z,17.10
2023-02-24T17:52:40.595Z,16.88
2023-02-24T17:55:07.410Z,16.17
2023-02-24T17:57:34.581Z,15.75
2023-02-24T18:00:00.627Z,14.40
2023-02-24T18:02:26.606Z,13.02
2023-02-24T18:04:53.612Z,12.48
2023-02-24T18:07:20.691Z,14.13
2023-02-24T18:09:46.635Z,13.55
2023-02-24T18:12:12.601Z,15.77
2023-02-24T18:14:38.536Z,16.08
2023-02-24T18:17:04.439Z,15.57
2023-02-24T18:19:30.291Z,15.60
2023-02-24T18:21:56.180Z,16.73
2023-02-24T18:24:22.243Z,16.08
2023-02-24T18:26:48.749Z,13.98
2023-02-24T18:29:14.971Z,13.20
2023-02-24T18:31:41.148Z,13.43
2023-02-24T18:34:07.175Z,12.40
2023-02-24T18:36:33.272Z,12.10
2023-02-24T18:38:59.559Z,14.35
2023-02-24T18:41:25.842Z,13.00
2023-02-24T18:43:54.355Z,13.25
2023-02-24T18:46:21.465Z,13.57
2023-02-24T18:48:49.671Z,14.45
2023-02-24T18:51:21.232Z,13.35
2023-02-24T18:53:47.751Z,11.73
2023-02-24T18:56:20.998Z,8.88
2023-02-24T18:58:52.076Z,8.00
2023-02-24T19:01:20.765Z,5.85
2023-02-24T19:03:48.130Z,6.50
2023-02-24T19:06:14.719Z,6.55
2023-02-24T19:08:41.472Z,5.20
2023-02-24T19:11:13.453Z,4.78
2023-02-24T19:13:40.126Z,5.03
2023-02-24T19:16:06.794Z,4.53
2023-02-24T19:18:32.961Z,4.85
2023-02-24T19:20:59.197Z,4.80
2023-02-24T19:23:25.189Z,4.93
2023-02-24T19:25:51.598Z,4.85
2023-02-24T19:28:17.871Z,5.05
2023-02-24T19:30:44.350Z,5.43
2023-02-24T19:33:10.541Z,5.75
2023-02-24T19:35:41.513Z,5.95
2023-02-24T19:38:08.893Z,6.15
2023-02-24T19:40:35.984Z,5.85
2023-02-24T19:43:01.990Z,5.63
2023-02-24T19:45:28.162Z,5.65
2023-02-24T19:47:54.310Z,6.07
2023-02-24T19:50:20.286Z,5.00
2023-02-24T19:52:46.200Z,5.65
2023-02-24T19:55:12.964Z,5.55
2023-02-24T19:57:38.991Z,5.35
2023-02-24T20:00:06.446Z,5.47
2023-02-24T20:02:32.449Z,6.53
2023-02-24T20:04:58.780Z,6.20
2023-02-24T20:07:25.035Z,6.65
2023-02-24T20:09:51.097Z,7.82
2023-02-24T20:12:17.114Z,7.57
2023-02-24T20:14:43.237Z,7.75
2023-02-24T20:17:09.399Z,7.95
2023-02-24T20:19:35.718Z,6.68
2023-02-24T20:22:01.729Z,5.30
2023-02-24T20:24:27.768Z,5.32
2023-02-24T20:26:53.853Z,6.35
2023-02-24T20:29:21.078Z,6.32
2023-02-24T20:31:48.077Z,6.32
2023-02-24T20:34:16.028Z,6.18
2023-02-24T20:36:43.238Z,6.90
2023-02-24T20:39:11.934Z,6.25
2023-02-24T20:41:40.029Z,7.50
2023-02-24T20:44:07.666Z,8.50
2023-02-24T20:46:33.805Z,8.15
2023-02-24T20:49:03.390Z,8.23
2023-02-24T20:51:30.838Z,7.70
2023-02-24T20:53:58.777Z,7.38
2023-02-24T20:56:33.444Z,7.75
2023-02-24T20:59:03.095Z,7.47
2023-02-24T21:01:30.764Z,8.43
2023-02-24T21:03:56.953Z,7.32
2023-02-24T21:06:23.578Z,7.93
2023-02-24T21:08:51.849Z,8.32
2023-02-24T21:11:18.239Z,8.07
2023-02-24T21:13:47.094Z,8.90
2023-02-24T21:16:15.173Z,10.45
2023-02-24T21:18:43.001Z,9.48
2023-02-24T21:21:09.916Z,9.32
2023-02-24T21:23:38.158Z,8.05
2023-02-24T21:26:06.038Z,7.75
2023-02-24T21:28:32.871Z,9.63
2023-02-24T21:30:59.447Z,7.93
2023-02-24T21:33:25.445Z,9.05
2023-02-24T21:36:02.642Z,8.00
2023-02-24T21:38:33.448Z,8.18
2023-02-24T21:41:04.464Z,9.52
2023-02-24T21:43:31.977Z,7.93
2023-02-24T21:46:05.173Z,7.28
2023-02-24T21:48:34.562Z,8.52
2023-02-24T21:51:12.121Z,9.00
2023-02-24T21:53:40.469Z,7.05
2023-02-24T21:56:15.623Z,7.60
2023-02-24T21:58:59.423Z,7.93
2023-02-24T22:01:31.712Z,7.53
2023-02-24T22:04:00.982Z,6.72
2023-02-24T22:06:31.009Z,8.00
2023-02-24T22:08:57.531Z,6.80
2023-02-24T22:11:23.563Z,7.47
2023-02-24T22:13:49.898Z,6.85
2023-02-24T22:16:21.400Z,7.38
2023-02-24T22:18:48.762Z,7.63
2023-02-24T22:21:17.855Z,7.75
2023-02-24T22:23:45.153Z,5.93
2023-02-24T22:26:12.274Z,6.95
2023-02-24T22:28:40.909Z,5.30
2023-02-24T22:31:09.020Z,5.75
2023-02-24T22:33:37.436Z,6.07
2023-02-24T22:36:09.663Z,6.82
2023-02-24T22:38:37.405Z,6.05
2023-02-24T22:41:06.298Z,7.05
2023-02-24T22:43:32.555Z,7.07
2023-02-24T22:46:00.540Z,7.68
2023-02-24T22:48:27.461Z,7.35
2023-02-24T22:50:55.636Z,6.80
2023-02-24T22:53:22.814Z,7.00
2023-02-24T22:55:49.136Z,6.97
2023-02-24T22:58:17.682Z,8.10
2023-02-24T23:00:47.507Z,7.22
2023-02-24T23:03:16.318Z,7.32
2023-02-24T23:05:52.717Z,7.45
2023-02-24T23:08:20.027Z,7.38
2023-02-24T23:10:45.895Z,6.63
2023-02-24T23:13:11.983Z,7.38
2023-02-24T23:15:38.808Z,7.55
2023-02-24T23:18:05.219Z,6.88
2023-02-24T23:20:37.490Z,7.82
2023-02-24T23:23:03.789Z,7.43
2023-02-24T23:25:29.686Z,6.75
2023-02-24T23:27:55.573Z,7.45
2023-02-24T23:30:22.845Z,6.55
2023-02-24T23:32:48.804Z,7.75
2023-02-24T23:35:14.895Z,5.85
2023-02-24T23:37:41.006Z,5.53
2023-02-24T23:40:14.124Z,5.70
2023-02-24T23:42:43.386Z,6.47
2023-02-24T23:45:10.356Z,5.10
2023-02-24T23:47:36.658Z,5.60
2023-02-24T23:50:03.430Z,6.15
2023-02-24T23:52:29.430Z,5.72
2023-02-24T23:54:55.345Z,5.90
2023-02-24T23:57:21.800Z,5.75
2023-02-24T23:59:47.812Z,6.03
